Lolani — WDF3586 — position and weather

sailwx.info

Track history (hours):
 
Tides and Currents Weather Stations Pressure Air Temp Water Temp Dewpoint Dewpoint Depression Visibility Wind Speed Wind Dir Waves Ship Positions

Lolani

Owner: Scripps, Edward W, Bellevue, WA. More information available from US FCC via Universal Licensing System and Coast Guard Vessel Documentation Center.

Last reported at 2018-May-21 19:25 UTC. Time now 2018-May-26 07:52 UTC.
Position N 48°58' W 123°33'.

Type: Sailing vessel. MMSI: 316026565.

Date/timePositionNaut miles runAvg speedWind from/ knotsBaromVisibWave heightAir tempDewpointWater temp
2018-May-21 19:25N 48°58' W 123°33'2 5.7
2018-May-21 19:00N 48°56' W 123°30'3 6.6
2018-May-21 18:30N 48°54' W 123°26'1 1.4
2018-May-21 17:58N 48°54' W 123°25'0 0.0
2018-May-21 17:28N 48°54' W 123°25'0 0.0
2018-May-21 16:58N 48°54' W 123°25'0 0.1
2018-May-21 16:28N 48°54' W 123°25'0 0.0
2018-May-21 15:58N 48°54' W 123°25'0 0.1
2018-May-21 15:28N 48°54' W 123°25'0 0.0
2018-May-21 14:58N 48°54' W 123°25'0 0.0
2018-May-21 14:28N 48°54' W 123°25'0 0.0
2018-May-21 13:58N 48°54' W 123°25'0 0.1
2018-May-21 13:28N 48°54' W 123°25'0 0.1
2018-May-21 12:58N 48°54' W 123°25'0 0.0
2018-May-21 12:28N 48°54' W 123°25'0 0.0
2018-May-21 11:58N 48°54' W 123°25'0 0.0
2018-May-21 11:28N 48°54' W 123°25'0 0.1
2018-May-21 10:58N 48°54' W 123°25'0 0.0
2018-May-21 10:28N 48°54' W 123°25'0 0.1
2018-May-21 09:58N 48°54' W 123°25'0 0.0
2018-May-21 09:28N 48°54' W 123°25'0 0.0
2018-May-21 08:58N 48°54' W 123°25'0 0.0
2018-May-21 08:28N 48°54' W 123°25'0 0.0
2018-May-21 07:58N 48°54' W 123°25'0 0.0
2018-May-21 07:28N 48°54' W 123°25'0 0.0
2018-May-21 06:58N 48°54' W 123°25'0 0.0
2018-May-21 06:28N 48°54' W 123°25'0 0.0
2018-May-21 05:58N 48°54' W 123°25'0 0.0
2018-May-21 04:13N 48°54' W 123°25'0 0.0
2018-May-21 01:07N 48°54' W 123°25'0 0.0
2018-May-21 00:46N 48°54' W 123°25'2 0.0
2018-May-18 21:19N 48°52' W 123°25'12 0.2
2018-May-16 17:23N 48°40' W 123°24'0 0.0
2018-May-16 16:59N 48°40' W 123°24'0 0.0
2018-May-16 16:29N 48°40' W 123°24'0 0.0
2018-May-16 15:59N 48°40' W 123°24'0 0.0
2018-May-16 15:29N 48°40' W 123°24'0 0.0
2018-May-16 14:59N 48°40' W 123°24'0 0.0
2018-May-16 14:29N 48°40' W 123°24'0 0.0
2018-May-16 13:59N 48°40' W 123°24'0 0.0
2018-May-16 13:29N 48°40' W 123°24'0 0.0
2018-May-16 12:59N 48°40' W 123°24'0 0.0
2018-May-16 12:29N 48°40' W 123°24'0 0.0
2018-May-16 11:59N 48°40' W 123°24'0 0.0
2018-May-16 11:29N 48°40' W 123°24'0 0.0
2018-May-16 10:53N 48°40' W 123°24'0 0.0
2018-May-16 10:29N 48°40' W 123°24'0 0.0
2018-May-16 09:59N 48°40' W 123°24'0 0.0
2018-May-16 09:29N 48°40' W 123°24'0 0.0
2018-May-16 08:59N 48°40' W 123°24'0 0.0
2018-May-16 08:29N 48°40' W 123°24'0 0.0
2018-May-16 07:59N 48°40' W 123°24'0 0.0
2018-May-16 07:29N 48°40' W 123°24'0 0.0
2018-May-16 06:59N 48°40' W 123°24'0 0.0
2018-May-16 06:29N 48°40' W 123°24'0 0.0
2018-May-16 05:59N 48°40' W 123°24'0 0.0
2018-May-16 05:29N 48°40' W 123°24'0 0.0
2018-May-16 04:59N 48°40' W 123°24'0 0.0
2018-May-16 04:29N 48°40' W 123°24'0 0.0
2018-May-16 03:59N 48°40' W 123°24'0 0.0
2018-May-16 03:29N 48°40' W 123°24'0 0.0
2018-May-16 02:59N 48°40' W 123°24'0 0.0
2018-May-16 02:29N 48°40' W 123°24'0 0.0
2018-May-16 01:59N 48°40' W 123°24'0 0.0
2018-May-16 01:29N 48°40' W 123°24'0 0.0
2018-May-16 00:59N 48°40' W 123°24'0 0.0
2018-May-16 00:29N 48°40' W 123°24'0 0.0
2018-May-15 23:59N 48°40' W 123°24'0 0.0
2018-May-15 23:29N 48°40' W 123°24'0 0.0
2018-May-15 22:59N 48°40' W 123°24'0 0.0
2018-May-15 22:29N 48°40' W 123°24'0 0.0
2018-May-15 21:59N 48°40' W 123°24'0 0.0
2018-May-15 21:29N 48°40' W 123°24'0 0.0
2018-May-15 20:59N 48°40' W 123°24'0 0.0
2018-May-15 20:29N 48°40' W 123°24'0 0.0
2018-May-15 19:59N 48°40' W 123°24'  
Track history (hours):
 
Tides and Currents Weather Stations Pressure Air Temp Water Temp Dewpoint Dewpoint Depression Visibility Wind Speed Wind Dir Waves Ship Positions

Lolani

Owner: Scripps, Edward W, Bellevue, WA. More information available from US FCC via Universal Licensing System and Coast Guard Vessel Documentation Center.

Last reported at 2018-May-21 19:25 UTC. Time now 2018-May-26 07:52 UTC.
Position N 48°58' W 123°33'.

Type: Sailing vessel. MMSI: 316026565.

Date/timePositionNaut miles runAvg speedWind from/ knotsBaromVisibWave heightAir tempDewpointWater temp
2018-May-21 19:25N 48°58' W 123°33'2 5.7
2018-May-21 19:00N 48°56' W 123°30'3 6.6
2018-May-21 18:30N 48°54' W 123°26'1 1.4
2018-May-21 17:58N 48°54' W 123°25'0 0.0
2018-May-21 17:28N 48°54' W 123°25'0 0.0
2018-May-21 16:58N 48°54' W 123°25'0 0.1
2018-May-21 16:28N 48°54' W 123°25'0 0.0
2018-May-21 15:58N 48°54' W 123°25'0 0.1
2018-May-21 15:28N 48°54' W 123°25'0 0.0
2018-May-21 14:58N 48°54' W 123°25'0 0.0
2018-May-21 14:28N 48°54' W 123°25'0 0.0
2018-May-21 13:58N 48°54' W 123°25'0 0.1
2018-May-21 13:28N 48°54' W 123°25'0 0.1
2018-May-21 12:58N 48°54' W 123°25'0 0.0
2018-May-21 12:28N 48°54' W 123°25'0 0.0
2018-May-21 11:58N 48°54' W 123°25'0 0.0
2018-May-21 11:28N 48°54' W 123°25'0 0.1
2018-May-21 10:58N 48°54' W 123°25'0 0.0
2018-May-21 10:28N 48°54' W 123°25'0 0.1
2018-May-21 09:58N 48°54' W 123°25'0 0.0
2018-May-21 09:28N 48°54' W 123°25'0 0.0
2018-May-21 08:58N 48°54' W 123°25'0 0.0
2018-May-21 08:28N 48°54' W 123°25'0 0.0
2018-May-21 07:58N 48°54' W 123°25'0 0.0
2018-May-21 07:28N 48°54' W 123°25'0 0.0
2018-May-21 06:58N 48°54' W 123°25'0 0.0
2018-May-21 06:28N 48°54' W 123°25'0 0.0
2018-May-21 05:58N 48°54' W 123°25'0 0.0
2018-May-21 04:13N 48°54' W 123°25'0 0.0
2018-May-21 01:07N 48°54' W 123°25'0 0.0
2018-May-21 00:46N 48°54' W 123°25'2 0.0
2018-May-18 21:19N 48°52' W 123°25'12 0.2
2018-May-16 17:23N 48°40' W 123°24'0 0.0
2018-May-16 16:59N 48°40' W 123°24'0 0.0
2018-May-16 16:29N 48°40' W 123°24'0 0.0
2018-May-16 15:59N 48°40' W 123°24'0 0.0
2018-May-16 15:29N 48°40' W 123°24'0 0.0
2018-May-16 14:59N 48°40' W 123°24'0 0.0
2018-May-16 14:29N 48°40' W 123°24'0 0.0
2018-May-16 13:59N 48°40' W 123°24'0 0.0
2018-May-16 13:29N 48°40' W 123°24'0 0.0
2018-May-16 12:59N 48°40' W 123°24'0 0.0
2018-May-16 12:29N 48°40' W 123°24'0 0.0
2018-May-16 11:59N 48°40' W 123°24'0 0.0
2018-May-16 11:29N 48°40' W 123°24'0 0.0
2018-May-16 10:53N 48°40' W 123°24'0 0.0
2018-May-16 10:29N 48°40' W 123°24'0 0.0
2018-May-16 09:59N 48°40' W 123°24'0 0.0
2018-May-16 09:29N 48°40' W 123°24'0 0.0
2018-May-16 08:59N 48°40' W 123°24'0 0.0
2018-May-16 08:29N 48°40' W 123°24'0 0.0
2018-May-16 07:59N 48°40' W 123°24'0 0.0
2018-May-16 07:29N 48°40' W 123°24'0 0.0
2018-May-16 06:59N 48°40' W 123°24'0 0.0
2018-May-16 06:29N 48°40' W 123°24'0 0.0
2018-May-16 05:59N 48°40' W 123°24'0 0.0
2018-May-16 05:29N 48°40' W 123°24'0 0.0
2018-May-16 04:59N 48°40' W 123°24'0 0.0
2018-May-16 04:29N 48°40' W 123°24'0 0.0
2018-May-16 03:59N 48°40' W 123°24'0 0.0
2018-May-16 03:29N 48°40' W 123°24'0 0.0
2018-May-16 02:59N 48°40' W 123°24'0 0.0
2018-May-16 02:29N 48°40' W 123°24'0 0.0
2018-May-16 01:59N 48°40' W 123°24'0 0.0
2018-May-16 01:29N 48°40' W 123°24'0 0.0
2018-May-16 00:59N 48°40' W 123°24'0 0.0
2018-May-16 00:29N 48°40' W 123°24'0 0.0
2018-May-15 23:59N 48°40' W 123°24'0 0.0
2018-May-15 23:29N 48°40' W 123°24'0 0.0
2018-May-15 22:59N 48°40' W 123°24'0 0.0
2018-May-15 22:29N 48°40' W 123°24'0 0.0
2018-May-15 21:59N 48°40' W 123°24'0 0.0
2018-May-15 21:29N 48°40' W 123°24'0 0.0
2018-May-15 20:59N 48°40' W 123°24'0 0.0
2018-May-15 20:29N 48°40' W 123°24'0 0.0
2018-May-15 19:59N 48°40' W 123°24'  

Dump ship's entire track history